createdAt,value
2022-08-28T00:02:00.935Z,108.55
2022-08-28T00:04:28.191Z,107.60
2022-08-28T00:06:55.214Z,117.88
2022-08-28T00:09:22.156Z,124.03
2022-08-28T00:11:50.559Z,124.45
2022-08-28T00:14:21.713Z,124.70
2022-08-28T00:16:49.030Z,124.00
2022-08-28T00:19:16.406Z,123.45
2022-08-28T00:21:44.258Z,121.85
2022-08-28T00:24:11.776Z,116.68
2022-08-28T00:26:57.458Z,118.82
2022-08-28T00:29:25.882Z,121.10
2022-08-28T00:31:52.877Z,121.90
2022-08-28T00:34:19.764Z,127.03
2022-08-28T00:36:55.422Z,131.38
2022-08-28T00:39:22.258Z,127.40
2022-08-28T00:41:50.804Z,133.48
2022-08-28T00:44:28.808Z,147.57
2022-08-28T00:46:58.025Z,145.93
2022-08-28T00:49:28.645Z,141.43
2022-08-28T00:52:05.918Z,358.73
2022-08-28T00:54:35.977Z,89.43
2022-08-28T00:57:05.070Z,90.18
2022-08-28T00:59:33.882Z,89.93
2022-08-28T01:02:01.314Z,89.13
2022-08-28T01:04:32.297Z,89.72
2022-08-28T01:07:02.782Z,90.18
2022-08-28T01:09:32.576Z,91.25
2022-08-28T01:12:03.297Z,91.50
2022-08-28T01:14:33.867Z,90.40
2022-08-28T01:17:00.775Z,91.10
2022-08-28T01:19:31.917Z,91.05
2022-08-28T01:22:10.965Z,90.03
2022-08-28T01:24:40.778Z,91.85
2022-08-28T01:27:07.750Z,92.90
2022-08-28T01:29:34.661Z,92.50
2022-08-28T01:32:02.297Z,90.72
2022-08-28T01:34:30.252Z,95.88
2022-08-28T01:36:58.571Z,94.90
2022-08-28T01:39:30.442Z,95.15
2022-08-28T01:42:00.729Z,96.95
2022-08-28T01:44:28.280Z,105.93
2022-08-28T01:46:57.828Z,125.55
2022-08-28T01:49:25.827Z,130.05
2022-08-28T01:51:54.738Z,142.00
2022-08-28T01:54:23.969Z,142.02
2022-08-28T01:56:51.328Z,146.23
2022-08-28T01:59:19.708Z,145.02
2022-08-28T02:01:47.617Z,155.18
2022-08-28T02:04:14.992Z,169.95
2022-08-28T02:06:42.046Z,246.90
2022-08-28T02:09:11.593Z,180.50
2022-08-28T02:11:45.392Z,219.10
2022-08-28T02:14:14.206Z,148.98
2022-08-28T02:16:42.498Z,148.50
2022-08-28T02:19:09.828Z,169.48
2022-08-28T02:21:36.713Z,197.52
2022-08-28T02:24:04.935Z,87.20
2022-08-28T02:26:33.151Z,86.07
2022-08-28T02:29:00.092Z,86.22
2022-08-28T02:31:27.499Z,86.88
2022-08-28T02:33:55.885Z,85.25
2022-08-28T02:36:23.725Z,83.50
2022-08-28T02:38:57.371Z,87.47
2022-08-28T02:41:24.618Z,84.03
2022-08-28T02:43:51.431Z,84.80
2022-08-28T02:46:18.387Z,87.03
2022-08-28T02:48:45.674Z,85.60
2022-08-28T02:51:14.984Z,89.20
2022-08-28T02:53:42.898Z,92.93
2022-08-28T02:56:10.327Z,110.28
2022-08-28T02:58:37.382Z,122.55
2022-08-28T03:01:06.984Z,129.52
2022-08-28T03:03:34.374Z,127.88
2022-08-28T03:06:02.666Z,127.80
2022-08-28T03:08:32.269Z,132.10
2022-08-28T03:11:00.304Z,134.52
2022-08-28T03:13:27.602Z,130.77
2022-08-28T03:15:55.808Z,127.57
2022-08-28T03:18:23.670Z,139.57
2022-08-28T03:20:50.543Z,155.07
2022-08-28T03:23:26.419Z,127.90
2022-08-28T03:25:55.994Z,116.43
2022-08-28T03:28:23.549Z,109.07
2022-08-28T03:30:50.985Z,81.55
2022-08-28T03:33:19.887Z,78.60
2022-08-28T03:35:47.086Z,78.32
2022-08-28T03:38:14.112Z,78.15
2022-08-28T03:40:42.526Z,78.30
2022-08-28T03:43:12.212Z,78.78
2022-08-28T03:45:39.988Z,76.97
2022-08-28T03:48:07.345Z,77.93
2022-08-28T03:50:34.900Z,78.72
2022-08-28T03:53:02.716Z,78.43
2022-08-28T03:55:30.305Z,81.30
2022-08-28T03:57:57.191Z,80.85
2022-08-28T04:00:25.584Z,80.68
2022-08-28T04:02:53.753Z,82.50
2022-08-28T04:05:20.673Z,89.50
2022-08-28T04:07:48.219Z,85.30
2022-08-28T04:10:15.100Z,83.93
2022-08-28T04:12:42.079Z,84.15
2022-08-28T04:15:11.681Z,85.40
2022-08-28T04:17:41.155Z,88.22
2022-08-28T04:20:09.516Z,94.47
2022-08-28T04:22:37.241Z,92.82
2022-08-28T04:25:04.952Z,91.43
2022-08-28T04:27:31.938Z,90.55
2022-08-28T04:29:59.219Z,93.93
2022-08-28T04:32:26.458Z,94.22
2022-08-28T04:34:54.668Z,93.70
2022-08-28T04:37:21.687Z,96.07
2022-08-28T04:39:51.415Z,101.75
2022-08-28T04:42:18.364Z,103.72
2022-08-28T04:44:45.418Z,101.25
2022-08-28T04:47:12.247Z,100.18
2022-08-28T04:49:39.729Z,101.15
2022-08-28T04:52:08.040Z,105.30
2022-08-28T04:54:35.432Z,105.70
2022-08-28T04:57:02.793Z,106.00
2022-08-28T04:59:34.321Z,109.57
2022-08-28T05:02:02.944Z,105.10
2022-08-28T05:04:29.859Z,106.63
2022-08-28T05:06:56.737Z,104.60
2022-08-28T05:09:24.926Z,101.68
2022-08-28T05:11:53.425Z,96.00
2022-08-28T05:14:21.830Z,98.28
2022-08-28T05:16:51.103Z,102.10
2022-08-28T05:19:19.770Z,105.13
2022-08-28T05:21:47.203Z,105.25
2022-08-28T05:24:14.126Z,104.93
2022-08-28T05:26:42.929Z,106.53
2022-08-28T05:29:10.696Z,105.47
2022-08-28T05:31:39.068Z,107.97
2022-08-28T05:34:07.417Z,105.95
2022-08-28T05:36:36.684Z,107.03
2022-08-28T05:39:06.191Z,108.05
2022-08-28T05:41:33.918Z,109.47
2022-08-28T05:44:04.759Z,108.47
2022-08-28T05:46:32.262Z,108.57
2022-08-28T05:49:00.405Z,114.53
2022-08-28T05:51:28.454Z,99.90
2022-08-28T05:53:57.606Z,102.55
2022-08-28T05:56:25.997Z,98.88
2022-08-28T05:58:53.075Z,95.38
2022-08-28T06:01:23.330Z,101.10
2022-08-28T06:03:55.023Z,101.78
2022-08-28T06:06:24.732Z,98.20
2022-08-28T06:08:58.225Z,91.53
2022-08-28T06:11:26.701Z,91.65
2022-08-28T06:13:53.698Z,98.22
2022-08-28T06:16:22.407Z,87.05
2022-08-28T06:18:51.002Z,99.47
2022-08-28T06:21:17.967Z,92.13
2022-08-28T06:23:44.844Z,94.15
2022-08-28T06:26:11.787Z,99.57
2022-08-28T06:28:38.658Z,103.45
2022-08-28T06:31:24.548Z,84.47
2022-08-28T06:33:54.827Z,84.32
2022-08-28T06:36:22.042Z,82.95
2022-08-28T06:38:49.000Z,81.63
2022-08-28T06:41:16.146Z,82.45
2022-08-28T06:43:43.103Z,81.57
2022-08-28T06:46:10.188Z,80.75
2022-08-28T06:48:37.363Z,81.72
2022-08-28T06:51:09.404Z,81.65
2022-08-28T06:53:37.687Z,81.72
2022-08-28T06:56:07.279Z,80.75
2022-08-28T06:58:35.241Z,81.13
2022-08-28T07:01:05.396Z,81.35
2022-08-28T07:03:33.228Z,80.95
2022-08-28T07:06:01.461Z,81.90
2022-08-28T07:08:30.290Z,82.03
2022-08-28T07:10:58.492Z,80.07
2022-08-28T07:13:25.758Z,80.25
2022-08-28T07:15:52.769Z,80.35
2022-08-28T07:18:20.214Z,81.28
2022-08-28T07:20:55.630Z,80.32
2022-08-28T07:23:22.579Z,79.95
2022-08-28T07:25:51.039Z,80.72
2022-08-28T07:28:17.994Z,81.35
2022-08-28T07:30:45.048Z,81.30
2022-08-28T07:33:12.143Z,81.97
2022-08-28T07:35:43.311Z,80.60
2022-08-28T07:40:36.910Z,80.18
2022-08-28T07:43:23.552Z,80.05
2022-08-28T07:45:57.894Z,80.28
2022-08-28T07:48:25.251Z,80.28
2022-08-28T07:50:52.338Z,80.30
2022-08-28T07:53:19.474Z,79.90
2022-08-28T07:55:46.671Z,80.20
2022-08-28T07:58:14.982Z,80.28
2022-08-28T08:00:41.942Z,79.72
2022-08-28T08:03:08.913Z,79.97
2022-08-28T08:05:35.752Z,81.22
2022-08-28T08:08:02.846Z,80.10
2022-08-28T08:10:34.183Z,80.25
2022-08-28T08:13:01.251Z,80.05
2022-08-28T08:15:31.372Z,80.40
2022-08-28T08:17:58.481Z,82.17
2022-08-28T08:20:25.579Z,80.97
2022-08-28T08:22:52.495Z,81.20
2022-08-28T08:25:19.513Z,79.45
2022-08-28T08:27:48.146Z,79.93
2022-08-28T08:30:15.274Z,79.55
2022-08-28T08:32:43.485Z,81.32
2022-08-28T08:35:12.851Z,79.97
2022-08-28T08:37:39.763Z,82.63
2022-08-28T08:40:10.740Z,80.30
2022-08-28T08:45:13.723Z,80.72
2022-08-28T08:47:48.115Z,80.00
2022-08-28T08:50:18.847Z,81.68
2022-08-28T08:52:53.495Z,81.43
2022-08-28T08:55:24.787Z,80.82
2022-08-28T08:57:57.215Z,82.13
2022-08-28T09:00:24.864Z,81.25
2022-08-28T09:03:00.523Z,81.00
2022-08-28T09:05:40.772Z,81.50
2022-08-28T09:08:15.935Z,81.33
2022-08-28T09:10:51.649Z,81.25
2022-08-28T09:13:25.423Z,81.90
2022-08-28T09:15:52.477Z,82.35
2022-08-28T09:18:23.568Z,81.30
2022-08-28T09:23:18.894Z,81.95
2022-08-28T09:25:55.434Z,81.65
2022-08-28T09:28:25.077Z,81.78
2022-08-28T09:31:02.890Z,81.35
2022-08-28T09:33:38.555Z,81.25
2022-08-28T09:36:31.594Z,81.55
2022-08-28T09:39:12.081Z,82.25
2022-08-28T09:42:04.552Z,81.47
2022-08-28T09:44:31.950Z,81.47
2022-08-28T09:46:59.350Z,81.78
2022-08-28T09:49:30.123Z,81.28
2022-08-28T09:51:59.638Z,82.30
2022-08-28T09:54:31.901Z,81.05
2022-08-28T09:56:59.141Z,81.35
2022-08-28T09:59:28.866Z,81.28
2022-08-28T10:02:18.030Z,81.45
2022-08-28T10:04:58.918Z,80.05
2022-08-28T10:07:34.959Z,80.63
2022-08-28T10:10:17.056Z,79.78
2022-08-28T10:12:54.794Z,80.03
2022-08-28T10:15:30.248Z,80.90
2022-08-28T10:18:19.042Z,80.82
2022-08-28T10:20:54.969Z,80.40
2022-08-28T10:23:31.289Z,80.50
2022-08-28T10:26:08.031Z,81.43
2022-08-28T10:28:49.393Z,80.80
2022-08-28T10:31:22.663Z,80.93
2022-08-28T10:34:04.767Z,80.20
2022-08-28T10:36:35.375Z,79.65
2022-08-28T10:39:15.800Z,79.80
2022-08-28T10:41:47.985Z,81.30
2022-08-28T10:44:20.727Z,79.80
2022-08-28T10:46:52.028Z,80.57
2022-08-28T10:49:26.540Z,80.97
2022-08-28T10:52:01.002Z,80.75
2022-08-28T10:54:33.067Z,80.68
2022-08-28T10:57:08.740Z,81.18
2022-08-28T10:59:42.128Z,80.93
2022-08-28T11:02:13.737Z,80.40
2022-08-28T11:04:40.894Z,80.63
2022-08-28T11:07:13.424Z,81.10
2022-08-28T11:09:46.084Z,83.03
2022-08-28T11:12:36.012Z,80.80
2022-08-28T11:15:37.413Z,81.68
2022-08-28T11:18:31.037Z,81.55
2022-08-28T11:21:08.877Z,81.30
2022-08-28T11:23:43.833Z,81.55
2022-08-28T11:26:14.801Z,82.90
2022-08-28T11:28:46.591Z,81.53
2022-08-28T11:31:33.221Z,81.60
2022-08-28T11:34:02.507Z,81.78
2022-08-28T11:37:01.630Z,81.20
2022-08-28T11:39:30.127Z,80.60
2022-08-28T11:42:35.149Z,83.60
2022-08-28T11:45:02.658Z,81.00
2022-08-28T11:47:47.304Z,81.47
2022-08-28T11:50:24.075Z,80.47
2022-08-28T11:53:25.919Z,81.35
2022-08-28T11:56:31.353Z,80.97
2022-08-28T11:59:15.935Z,82.38
2022-08-28T12:01:43.307Z,80.68
2022-08-28T12:04:13.776Z,81.22
2022-08-28T12:06:52.390Z,82.03
2022-08-28T12:09:44.385Z,81.25
2022-08-28T12:12:13.976Z,82.45
2022-08-28T12:15:07.247Z,82.90
2022-08-28T12:17:49.141Z,82.53
2022-08-28T12:20:35.307Z,81.80
2022-08-28T12:23:23.702Z,82.35
2022-08-28T12:25:58.816Z,81.70
2022-08-28T12:28:31.860Z,82.15
2022-08-28T12:31:53.598Z,81.85
2022-08-28T12:34:28.977Z,81.53
2022-08-28T12:37:01.082Z,81.80
2022-08-28T12:39:30.686Z,82.13
2022-08-28T12:41:58.801Z,81.72
2022-08-28T12:44:27.958Z,82.53
2022-08-28T12:46:57.209Z,83.50
2022-08-28T12:49:31.895Z,82.38
2022-08-28T12:52:16.610Z,81.63
2022-08-28T12:54:44.358Z,82.60
2022-08-28T12:57:13.235Z,83.50
2022-08-28T12:59:42.563Z,81.55
2022-08-28T13:02:20.716Z,81.55
2022-08-28T13:04:55.539Z,82.72
2022-08-28T13:07:27.619Z,82.22
2022-08-28T13:09:56.746Z,81.90
2022-08-28T13:12:37.827Z,82.75
2022-08-28T13:15:55.239Z,82.28
2022-08-28T13:18:44.390Z,82.13
2022-08-28T13:21:33.994Z,82.88
2022-08-28T13:24:39.498Z,82.18
2022-08-28T13:27:15.889Z,81.07
2022-08-28T13:29:55.663Z,81.10
2022-08-28T13:32:30.693Z,81.03
2022-08-28T13:35:30.736Z,81.72
2022-08-28T13:37:59.841Z,81.57
2022-08-28T13:43:18.615Z,81.22
2022-08-28T13:45:48.704Z,80.63
2022-08-28T13:48:20.075Z,80.90
2022-08-28T13:50:49.906Z,81.32
2022-08-28T13:53:19.897Z,81.10
2022-08-28T13:55:49.196Z,81.43
2022-08-28T13:58:16.563Z,80.80
2022-08-28T14:00:46.158Z,82.28
2022-08-28T14:03:31.624Z,81.55
2022-08-28T14:05:59.906Z,80.80
2022-08-28T14:08:26.878Z,80.88
2022-08-28T14:10:53.791Z,80.70
2022-08-28T14:13:23.152Z,80.57
2022-08-28T14:15:50.150Z,81.90
2022-08-28T14:18:18.109Z,81.22
2022-08-28T14:20:45.036Z,84.25
2022-08-28T14:23:13.467Z,81.18
2022-08-28T14:25:42.229Z,80.97
2022-08-28T14:28:09.095Z,80.70
2022-08-28T14:30:40.734Z,80.78
2022-08-28T14:33:07.618Z,80.57
2022-08-28T14:35:38.778Z,81.03
2022-08-28T14:38:06.090Z,81.70
2022-08-28T14:40:35.723Z,80.40
2022-08-28T14:43:02.685Z,80.88
2022-08-28T14:45:29.665Z,80.55
2022-08-28T14:47:56.530Z,80.40
2022-08-28T14:50:23.358Z,82.35
2022-08-28T14:52:50.550Z,81.40
2022-08-28T14:55:18.804Z,80.55
2022-08-28T14:57:48.887Z,80.75
2022-08-28T15:00:18.351Z,80.53
2022-08-28T15:02:45.278Z,80.65
2022-08-28T15:05:12.148Z,81.03
2022-08-28T15:07:39.072Z,80.88
2022-08-28T15:10:09.595Z,80.57
2022-08-28T15:12:36.428Z,80.65
2022-08-28T15:15:09.806Z,80.47
2022-08-28T15:17:36.671Z,80.82
2022-08-28T15:20:04.911Z,82.20
2022-08-28T15:22:31.890Z,80.20
2022-08-28T15:24:58.782Z,80.97
2022-08-28T15:27:25.671Z,80.60
2022-08-28T15:29:53.704Z,80.43
2022-08-28T15:32:21.978Z,80.25
2022-08-28T15:34:48.821Z,80.03
2022-08-28T15:37:15.739Z,80.00
2022-08-28T15:40:00.901Z,82.55
2022-08-28T15:42:29.695Z,80.45
2022-08-28T15:44:57.048Z,80.70
2022-08-28T15:47:26.033Z,80.55
2022-08-28T15:49:55.244Z,80.38
2022-08-28T15:52:22.794Z,80.90
2022-08-28T15:54:49.700Z,80.32
2022-08-28T15:57:16.787Z,80.53
2022-08-28T15:59:48.698Z,81.68
2022-08-28T16:02:17.997Z,80.28
2022-08-28T16:04:46.338Z,80.57
2022-08-28T16:07:13.304Z,80.28
2022-08-28T16:09:40.154Z,80.00
2022-08-28T16:12:07.250Z,80.53
2022-08-28T16:14:34.322Z,81.03
2022-08-28T16:17:05.943Z,80.55
2022-08-28T16:19:38.406Z,80.43
2022-08-28T16:22:07.088Z,79.97
2022-08-28T16:24:34.506Z,80.15
2022-08-28T16:27:01.532Z,81.15
2022-08-28T16:29:28.708Z,80.10
2022-08-28T16:31:56.704Z,80.50
2022-08-28T16:34:27.063Z,80.30
2022-08-28T16:36:56.366Z,80.03
2022-08-28T16:39:24.626Z,80.57
2022-08-28T16:41:51.488Z,80.35
2022-08-28T16:44:19.550Z,81.63
2022-08-28T16:46:46.672Z,80.05
2022-08-28T16:49:13.679Z,80.05
2022-08-28T16:51:40.576Z,81.63
2022-08-28T16:54:07.737Z,80.32
2022-08-28T16:56:36.398Z,80.22
2022-08-28T16:59:03.957Z,79.95
2022-08-28T17:01:37.667Z,79.70
2022-08-28T17:04:07.737Z,80.38
2022-08-28T17:06:35.479Z,80.50
2022-08-28T17:09:02.355Z,80.32
2022-08-28T17:11:29.536Z,79.85
2022-08-28T17:13:58.124Z,79.65
2022-08-28T17:16:26.009Z,79.93
2022-08-28T17:18:53.107Z,79.82
2022-08-28T17:21:38.975Z,79.65
2022-08-28T17:24:06.911Z,79.88
2022-08-28T17:26:33.813Z,79.95
2022-08-28T17:29:02.920Z,80.20
2022-08-28T17:31:30.013Z,79.72
2022-08-28T17:33:57.300Z,79.78
2022-08-28T17:36:33.094Z,80.00
2022-08-28T17:39:03.196Z,79.53
2022-08-28T17:41:30.070Z,79.18
2022-08-28T17:43:56.935Z,79.93
2022-08-28T17:46:25.791Z,78.90
2022-08-28T17:48:55.926Z,80.88
2022-08-28T17:51:42.906Z,79.82
2022-08-28T17:54:11.926Z,79.65
2022-08-28T17:56:38.771Z,80.68
2022-08-28T17:59:05.627Z,79.63
2022-08-28T18:01:34.254Z,79.10
2022-08-28T18:04:01.238Z,79.55
2022-08-28T18:06:28.109Z,79.65
2022-08-28T18:08:55.021Z,79.90
2022-08-28T18:11:21.869Z,82.30
2022-08-28T18:13:48.759Z,79.03
2022-08-28T18:16:16.273Z,79.40
2022-08-28T18:18:44.545Z,79.65
2022-08-28T18:21:11.863Z,79.18
2022-08-28T18:23:39.898Z,80.03
2022-08-28T18:26:08.259Z,79.05
2022-08-28T18:28:35.353Z,79.50
2022-08-28T18:31:03.185Z,78.82
2022-08-28T18:33:30.102Z,79.15
2022-08-28T18:35:58.461Z,79.00
2022-08-28T18:38:28.547Z,79.43
2022-08-28T18:40:56.212Z,79.05
2022-08-28T18:43:24.010Z,83.30
2022-08-28T18:45:51.468Z,78.93
2022-08-28T18:48:19.226Z,78.22
2022-08-28T18:50:48.003Z,78.68
2022-08-28T18:53:17.567Z,78.47
2022-08-28T18:55:45.799Z,79.05
2022-08-28T18:58:15.348Z,78.75
2022-08-28T19:00:42.886Z,78.78
2022-08-28T19:03:10.230Z,78.05
2022-08-28T19:05:38.335Z,79.28
2022-08-28T19:08:05.431Z,79.00
2022-08-28T19:10:35.105Z,78.60
2022-08-28T19:13:02.752Z,78.57
2022-08-28T19:15:30.183Z,77.93
2022-08-28T19:18:00.330Z,79.22
2022-08-28T19:20:28.102Z,77.68
2022-08-28T19:22:55.784Z,78.10
2022-08-28T19:25:28.517Z,78.05
2022-08-28T19:27:59.138Z,77.35
2022-08-28T19:30:27.310Z,77.37
2022-08-28T19:32:54.245Z,77.50
2022-08-28T19:35:24.252Z,78.28
2022-08-28T19:37:51.686Z,80.53
2022-08-28T19:40:18.921Z,82.57
2022-08-28T19:42:46.175Z,82.35
2022-08-28T19:45:15.095Z,80.35
2022-08-28T19:47:44.115Z,80.00
2022-08-28T19:50:12.834Z,79.72
2022-08-28T19:52:41.020Z,80.32
2022-08-28T19:55:08.846Z,80.45
2022-08-28T19:57:35.807Z,80.68
2022-08-28T20:00:04.245Z,82.15
2022-08-28T20:02:32.470Z,81.85
2022-08-28T20:04:59.521Z,82.25
2022-08-28T20:07:26.367Z,82.13
2022-08-28T20:09:53.289Z,79.70
2022-08-28T20:12:20.155Z,78.63
2022-08-28T20:14:47.496Z,80.88
2022-08-28T20:17:14.290Z,79.03
2022-08-28T20:19:42.584Z,79.13
2022-08-28T20:22:09.463Z,80.32
2022-08-28T20:24:39.326Z,81.20
2022-08-28T20:27:06.351Z,84.65
2022-08-28T20:29:36.039Z,81.60
2022-08-28T20:32:03.568Z,83.30
2022-08-28T20:34:30.418Z,81.10
2022-08-28T20:36:58.789Z,80.40
2022-08-28T20:39:25.651Z,79.80
2022-08-28T20:41:52.568Z,79.70
2022-08-28T20:44:20.415Z,81.45
2022-08-28T20:46:51.208Z,80.35
2022-08-28T20:49:22.285Z,82.05
2022-08-28T20:52:01.027Z,85.30
2022-08-28T20:54:32.400Z,79.75
2022-08-28T20:59:37.196Z,80.93
2022-08-28T21:02:08.295Z,81.45
2022-08-28T21:04:37.123Z,81.45
2022-08-28T21:07:07.101Z,82.40
2022-08-28T21:10:04.287Z,81.75
2022-08-28T21:12:22.511Z,82.90
2022-08-28T21:14:52.835Z,81.97
2022-08-28T21:17:28.869Z,85.25
2022-08-28T21:19:57.244Z,87.03
2022-08-28T21:22:24.218Z,88.70
2022-08-28T21:24:52.530Z,92.20
2022-08-28T21:27:19.381Z,99.68
2022-08-28T21:29:46.257Z,154.43
2022-08-28T21:32:13.139Z,160.15
2022-08-28T21:34:40.223Z,201.30
2022-08-28T21:37:07.054Z,98.22
2022-08-28T21:39:34.547Z,95.57
2022-08-28T21:42:03.301Z,95.90
2022-08-28T21:44:30.165Z,96.22
2022-08-28T21:47:00.542Z,95.22
2022-08-28T21:49:28.012Z,97.28
2022-08-28T21:51:54.834Z,100.22
2022-08-28T21:54:23.048Z,108.38
2022-08-28T21:56:56.246Z,99.70
2022-08-28T21:59:32.592Z,97.72
2022-08-28T22:02:05.199Z,96.95
2022-08-28T22:04:32.496Z,97.93
2022-08-28T22:06:59.363Z,98.53
2022-08-28T22:09:26.457Z,99.00
2022-08-28T22:11:53.980Z,99.13
2022-08-28T22:14:21.024Z,101.72
2022-08-28T22:16:49.432Z,102.60
2022-08-28T22:19:16.344Z,100.93
2022-08-28T22:22:01.877Z,102.63
2022-08-28T22:24:28.981Z,102.47
2022-08-28T22:26:57.753Z,104.95
2022-08-28T22:29:24.892Z,107.57
2022-08-28T22:31:53.244Z,111.78
2022-08-28T22:34:20.136Z,111.78
2022-08-28T22:36:47.082Z,113.18
2022-08-28T22:39:14.280Z,117.68
2022-08-28T22:41:42.080Z,117.40
2022-08-28T22:44:09.913Z,119.28
2022-08-28T22:46:36.830Z,123.30
2022-08-28T22:49:05.199Z,121.82
2022-08-28T22:51:34.317Z,130.60
2022-08-28T22:54:01.484Z,130.15
2022-08-28T22:56:28.429Z,127.35
2022-08-28T22:58:55.278Z,130.10
2022-08-28T23:01:24.837Z,128.25
2022-08-28T23:03:51.872Z,120.72
2022-08-28T23:06:21.590Z,121.80
2022-08-28T23:08:48.695Z,117.65
2022-08-28T23:11:15.568Z,121.45
2022-08-28T23:13:42.476Z,117.57
2022-08-28T23:16:10.786Z,126.70
2022-08-28T23:19:04.213Z,133.50
2022-08-28T23:21:28.373Z,123.20
2022-08-28T23:23:55.758Z,112.18
2022-08-28T23:26:23.650Z,108.63
2022-08-28T23:28:51.048Z,107.95
2022-08-28T23:31:18.192Z,105.68
2022-08-28T23:33:46.286Z,97.45
2022-08-28T23:36:14.711Z,97.75
2022-08-28T23:38:43.302Z,102.78
2022-08-28T23:41:10.474Z,104.00
2022-08-28T23:43:37.566Z,106.68
2022-08-28T23:46:05.480Z,98.32
2022-08-28T23:48:32.758Z,97.50
2022-08-28T23:50:59.831Z,91.70
2022-08-28T23:53:27.032Z,86.50
2022-08-28T23:55:55.623Z,88.20
2022-08-28T23:58:22.717Z,97.35
